Time;durP1;ratioP1;P1;durP2;ratioP2;P2;SDS_P1;SDS_P2;PMS_P1;PMS_P2;Temp;Humidity;BMP_temperature;BMP_pressure;BME280_temperature;BME280_humidity;BME280_pressure;Samples;Min_cycle;Max_cycle;Signal;HPM_P1;HPM_P2
2023/05/26 00:00:26;;;;;;;23.67;6.90;;;;;;;;;;5033301;28;20492;-82
2023/05/26 00:02:52;;;;;;;24.63;6.27;;;;;;;;;;5037974;28;20449;-81
2023/05/26 00:05:20;;;;;;;38.60;6.53;;;;;;;;;;5024593;28;20462;-81
2023/05/26 00:07:48;;;;;;;17.60;6.00;;;;;;;;;;5016535;28;20493;-82
2023/05/26 00:10:17;;;;;;;19.80;5.90;;;;;;;;;;5012117;28;20468;-81
2023/05/26 00:12:43;;;;;;;23.43;6.10;;;;;;;;;;5022455;28;20453;-81
2023/05/26 00:15:10;;;;;;;15.87;6.23;;;;;;;;;;5033837;28;20468;-81
2023/05/26 00:17:37;;;;;;;22.73;6.43;;;;;;;;;;5026008;28;20479;-82
2023/05/26 00:20:04;;;;;;;29.07;6.80;;;;;;;;;;5033164;28;20476;-81
2023/05/26 00:22:30;;;;;;;19.97;5.90;;;;;;;;;;5030780;28;20500;-81
2023/05/26 00:24:58;;;;;;;19.07;5.47;;;;;;;;;;5036680;28;20464;-81
2023/05/26 00:27:24;;;;;;;18.20;5.90;;;;;;;;;;5003963;28;20469;-81
2023/05/26 00:29:51;;;;;;;23.80;6.00;;;;;;;;;;5008215;28;20504;-81
2023/05/26 00:32:17;;;;;;;19.20;5.57;;;;;;;;;;5013534;28;20441;-81
2023/05/26 00:34:44;;;;;;;12.70;4.70;;;;;;;;;;5032804;28;20484;-81
2023/05/26 00:37:10;;;;;;;16.70;5.83;;;;;;;;;;5030804;28;20477;-81
2023/05/26 00:39:38;;;;;;;21.60;5.93;;;;;;;;;;5022098;28;20469;-81
2023/05/26 00:42:06;;;;;;;20.37;6.47;;;;;;;;;;5042777;28;20448;-81
2023/05/26 00:44:32;;;;;;;22.80;5.97;;;;;;;;;;5024931;28;20860;-81
2023/05/26 00:46:59;;;;;;;30.00;6.83;;;;;;;;;;5030480;28;20495;-81
2023/05/26 00:49:25;;;;;;;18.00;5.53;;;;;;;;;;5025598;28;20474;-81
2023/05/26 00:51:52;;;;;;;16.63;4.73;;;;;;;;;;5033849;28;20459;-81
2023/05/26 00:54:19;;;;;;;22.40;5.10;;;;;;;;;;5035739;28;20488;-81
2023/05/26 00:56:46;;;;;;;15.70;5.50;;;;;;;;;;5039032;28;20437;-81
2023/05/26 00:59:14;;;;;;;27.10;6.33;;;;;;;;;;5038455;28;20473;-81
2023/05/26 01:01:42;;;;;;;20.77;5.20;;;;;;;;;;5035884;28;20453;-81
2023/05/26 01:04:08;;;;;;;24.00;6.33;;;;;;;;;;5030312;28;20475;-81
2023/05/26 01:06:35;;;;;;;17.37;5.93;;;;;;;;;;5021156;28;20453;-80
2023/05/26 01:09:03;;;;;;;25.87;5.30;;;;;;;;;;5016225;28;20911;-81
2023/05/26 01:11:33;;;;;;;22.60;4.97;;;;;;;;;;5019419;28;20966;-81
2023/05/26 01:14:03;;;;;;;19.87;6.03;;;;;;;;;;5038053;28;20480;-81
2023/05/26 01:16:34;;;;;;;26.70;6.70;;;;;;;;;;5037079;28;20445;-81
2023/05/26 01:19:07;;;;;;;26.30;6.30;;;;;;;;;;5037199;28;20469;-81
2023/05/26 01:21:35;;;;;;;14.63;4.90;;;;;;;;;;5039200;28;20449;-81
2023/05/26 01:24:12;;;;;;;18.67;5.20;;;;;;;;;;5030300;28;20466;-82
2023/05/26 01:26:45;;;;;;;21.83;6.13;;;;;;;;;;5032828;28;20459;-80
2023/05/26 01:29:15;;;;;;;15.63;6.33;;;;;;;;;;5036235;28;20479;-81
2023/05/26 01:31:42;;;;;;;14.30;5.67;;;;;;;;;;5031651;28;20456;-81
2023/05/26 01:34:08;;;;;;;15.80;6.70;;;;;;;;;;5033523;28;20480;-82
2023/05/26 01:36:35;;;;;;;17.53;5.20;;;;;;;;;;5013141;28;20441;-81
2023/05/26 01:39:01;;;;;;;22.90;5.00;;;;;;;;;;5031258;28;20610;-81
2023/05/26 01:41:34;;;;;;;18.87;5.37;;;;;;;;;;5027575;28;20461;-81
2023/05/26 01:44:02;;;;;;;20.40;5.93;;;;;;;;;;5036406;28;20465;-81
2023/05/26 01:46:38;;;;;;;17.50;5.93;;;;;;;;;;5036518;28;20449;-81
2023/05/26 01:49:06;;;;;;;24.20;5.53;;;;;;;;;;5035199;28;20465;-81
2023/05/26 01:51:35;;;;;;;17.13;5.90;;;;;;;;;;5027766;28;20450;-82
2023/05/26 01:54:03;;;;;;;20.60;6.87;;;;;;;;;;5034586;28;20476;-81
2023/05/26 01:56:30;;;;;;;25.83;4.70;;;;;;;;;;5033476;28;20462;-81
2023/05/26 01:58:57;;;;;;;16.57;5.43;;;;;;;;;;5030209;28;20480;-81
2023/05/26 02:01:25;;;;;;;20.30;4.57;;;;;;;;;;5013853;28;20492;-81
2023/05/26 02:03:53;;;;;;;18.83;5.63;;;;;;;;;;5039045;28;20533;-81
2023/05/26 02:06:19;;;;;;;19.40;6.47;;;;;;;;;;5032866;28;20457;-81
2023/05/26 02:08:46;;;;;;;20.23;4.80;;;;;;;;;;5029914;28;20473;-81
2023/05/26 02:11:12;;;;;;;16.43;5.83;;;;;;;;;;5037521;28;20461;-81
2023/05/26 02:13:38;;;;;;;19.83;5.77;;;;;;;;;;5033723;28;21080;-81
2023/05/26 02:16:05;;;;;;;20.20;6.67;;;;;;;;;;5036916;28;20456;-81
2023/05/26 02:18:32;;;;;;;16.93;5.30;;;;;;;;;;5038066;28;20476;-81
2023/05/26 02:20:59;;;;;;;15.20;5.20;;;;;;;;;;5033686;28;20456;-81
2023/05/26 02:23:27;;;;;;;16.47;5.00;;;;;;;;;;5032688;28;20452;-81
2023/05/26 02:25:53;;;;;;;20.40;5.40;;;;;;;;;;5035296;28;20465;-82
2023/05/26 02:28:20;;;;;;;14.97;5.43;;;;;;;;;;5029258;28;20477;-82
2023/05/26 02:30:46;;;;;;;21.17;4.73;;;;;;;;;;5036842;28;20492;-81
2023/05/26 02:33:13;;;;;;;13.10;5.00;;;;;;;;;;5035073;28;20449;-80
2023/05/26 02:35:39;;;;;;;18.33;6.13;;;;;;;;;;5037854;28;20472;-81
2023/05/26 02:38:07;;;;;;;14.93;5.23;;;;;;;;;;5036120;28;20465;-81
2023/05/26 02:40:33;;;;;;;23.27;5.23;;;;;;;;;;5034701;28;21009;-81
2023/05/26 02:42:59;;;;;;;20.13;4.80;;;;;;;;;;5031819;28;20457;-81
2023/05/26 02:45:26;;;;;;;18.70;4.77;;;;;;;;;;5033541;28;20472;-81
2023/05/26 02:47:52;;;;;;;21.83;5.07;;;;;;;;;;5035729;28;20479;-80
2023/05/26 02:50:18;;;;;;;15.50;4.67;;;;;;;;;;5036797;28;20473;-81
2023/05/26 02:52:45;;;;;;;16.70;5.50;;;;;;;;;;5036461;28;20467;-82
2023/05/26 02:55:13;;;;;;;18.30;5.00;;;;;;;;;;5036401;28;21074;-81
2023/05/26 02:57:39;;;;;;;23.83;5.77;;;;;;;;;;5030619;28;20485;-81
2023/05/26 03:00:10;;;;;;;12.97;4.97;;;;;;;;;;5032405;28;20476;-81
2023/05/26 03:02:37;;;;;;;17.20;4.90;;;;;;;;;;5035212;28;20463;-81
2023/05/26 03:05:03;;;;;;;19.23;4.73;;;;;;;;;;5034100;28;20468;-81
2023/05/26 03:07:30;;;;;;;22.20;6.60;;;;;;;;;;5036238;28;21018;-81
2023/05/26 03:09:56;;;;;;;14.47;6.00;;;;;;;;;;5034353;28;21022;-82
2023/05/26 03:12:24;;;;;;;10.80;3.57;;;;;;;;;;5035333;28;20463;-81
2023/05/26 03:14:50;;;;;;;13.17;3.87;;;;;;;;;;5036600;28;20489;-81
2023/05/26 03:17:18;;;;;;;12.90;5.53;;;;;;;;;;5032295;28;20578;-81
2023/05/26 03:19:45;;;;;;;21.53;4.60;;;;;;;;;;5034306;28;20507;-81
2023/05/26 03:22:11;;;;;;;12.50;5.20;;;;;;;;;;5034300;28;20445;-80
2023/05/26 03:24:38;;;;;;;16.40;4.20;;;;;;;;;;5032163;28;20469;-81
2023/05/26 03:27:05;;;;;;;12.43;4.90;;;;;;;;;;5034024;28;20488;-81
2023/05/26 03:29:33;;;;;;;10.97;4.37;;;;;;;;;;5035521;28;20484;-81
2023/05/26 03:32:00;;;;;;;15.50;4.50;;;;;;;;;;5019316;28;20441;-81
2023/05/26 03:34:27;;;;;;;15.07;5.10;;;;;;;;;;5028548;28;20481;-81
2023/05/26 03:36:54;;;;;;;21.67;7.30;;;;;;;;;;5033527;28;20453;-80
2023/05/26 03:39:21;;;;;;;12.70;4.30;;;;;;;;;;5033286;28;20493;-81
2023/05/26 03:41:48;;;;;;;18.67;6.33;;;;;;;;;;5035756;28;20445;-81
2023/05/26 03:44:18;;;;;;;14.90;4.57;;;;;;;;;;5010819;28;20491;-81
2023/05/26 03:46:46;;;;;;;17.93;6.00;;;;;;;;;;5028699;28;21011;-80
2023/05/26 03:49:13;;;;;;;14.70;4.87;;;;;;;;;;5015107;28;20474;-80
2023/05/26 03:51:39;;;;;;;18.80;5.70;;;;;;;;;;5036290;28;20449;-81
2023/05/26 03:54:06;;;;;;;22.20;5.80;;;;;;;;;;5031414;28;20473;-81
2023/05/26 03:56:32;;;;;;;15.37;5.60;;;;;;;;;;5014225;28;20449;-81
2023/05/26 03:58:59;;;;;;;12.67;4.77;;;;;;;;;;5012398;28;20473;-81
2023/05/26 04:01:26;;;;;;;17.17;4.40;;;;;;;;;;5034712;28;20460;-81
2023/05/26 04:03:53;;;;;;;11.50;4.67;;;;;;;;;;5031573;28;20476;-80
2023/05/26 04:06:20;;;;;;;16.90;3.90;;;;;;;;;;5031160;28;20484;-81
2023/05/26 04:08:47;;;;;;;13.30;3.60;;;;;;;;;;5016505;28;20479;-81
2023/05/26 04:11:14;;;;;;;16.93;4.23;;;;;;;;;;5035758;28;20849;-81
2023/05/26 04:13:41;;;;;;;14.57;4.63;;;;;;;;;;5030913;28;20461;-81
2023/05/26 04:16:07;;;;;;;15.40;5.20;;;;;;;;;;5034113;28;20445;-81
2023/05/26 04:18:34;;;;;;;13.47;4.00;;;;;;;;;;5036720;28;20456;-81
2023/05/26 04:21:03;;;;;;;20.70;4.90;;;;;;;;;;5012336;28;20449;-81
2023/05/26 04:23:30;;;;;;;15.40;5.23;;;;;;;;;;5032662;28;20457;-81
2023/05/26 04:25:57;;;;;;;20.53;4.40;;;;;;;;;;5035887;28;20461;-81
2023/05/26 04:28:24;;;;;;;16.90;5.70;;;;;;;;;;5035384;28;21024;-81
2023/05/26 04:30:50;;;;;;;24.43;6.13;;;;;;;;;;5039081;28;20481;-81
2023/05/26 04:33:17;;;;;;;14.47;5.73;;;;;;;;;;5013046;28;20483;-81
2023/05/26 04:35:44;;;;;;;12.53;4.67;;;;;;;;;;5033195;28;20528;-81
2023/05/26 04:38:13;;;;;;;12.67;4.90;;;;;;;;;;5037666;28;20526;-81
2023/05/26 04:40:39;;;;;;;16.90;5.70;;;;;;;;;;5033206;28;20468;-81
2023/05/26 04:43:06;;;;;;;15.07;4.77;;;;;;;;;;5033383;28;20449;-81
2023/05/26 04:45:33;;;;;;;15.87;4.30;;;;;;;;;;5028183;28;20472;-81
2023/05/26 04:47:59;;;;;;;13.50;4.50;;;;;;;;;;5042923;28;20476;-81
2023/05/26 04:50:26;;;;;;;13.83;4.20;;;;;;;;;;5035120;28;20472;-81
2023/05/26 04:52:52;;;;;;;15.17;5.03;;;;;;;;;;5039352;28;20448;-80
2023/05/26 04:55:20;;;;;;;14.53;4.87;;;;;;;;;;5034280;28;20499;-81
2023/05/26 04:57:48;;;;;;;17.23;4.70;;;;;;;;;;5037370;28;20990;-81
2023/05/26 05:00:15;;;;;;;14.47;5.20;;;;;;;;;;5036690;28;20472;-81
2023/05/26 05:02:42;;;;;;;19.70;5.13;;;;;;;;;;5019761;28;20443;-81
2023/05/26 05:05:11;;;;;;;20.03;5.83;;;;;;;;;;5030173;28;21037;-80
2023/05/26 05:07:38;;;;;;;32.27;8.50;;;;;;;;;;5023353;28;20488;-80
2023/05/26 05:10:05;;;;;;;22.30;7.97;;;;;;;;;;5035139;28;20535;-80
2023/05/26 05:12:33;;;;;;;15.97;6.87;;;;;;;;;;5036878;28;20535;-81
2023/05/26 05:15:01;;;;;;;19.83;6.87;;;;;;;;;;5034145;28;20469;-81
2023/05/26 05:17:27;;;;;;;23.50;6.50;;;;;;;;;;5038661;28;20490;-80
2023/05/26 05:19:54;;;;;;;21.40;6.77;;;;;;;;;;5037751;28;20488;-81
2023/05/26 05:22:21;;;;;;;24.57;6.00;;;;;;;;;;5046310;28;20452;-81
2023/05/26 05:24:47;;;;;;;31.57;7.20;;;;;;;;;;5039683;28;20492;-81
2023/05/26 05:27:14;;;;;;;24.80;7.40;;;;;;;;;;5046759;28;20990;-81
2023/05/26 05:29:42;;;;;;;20.40;7.50;;;;;;;;;;5035389;28;20998;-80
2023/05/26 05:32:11;;;;;;;20.70;7.60;;;;;;;;;;5042592;28;20555;-81
2023/05/26 05:34:38;;;;;;;19.47;6.23;;;;;;;;;;5030908;28;20475;-81
2023/05/26 05:37:05;;;;;;;23.67;6.90;;;;;;;;;;5041923;28;20477;-81
2023/05/26 05:39:31;;;;;;;21.07;7.00;;;;;;;;;;5041619;28;20465;-81
2023/05/26 05:41:58;;;;;;;26.10;6.70;;;;;;;;;;5033321;28;20465;-80
2023/05/26 05:44:24;;;;;;;28.10;7.50;;;;;;;;;;5019151;28;20473;-80
2023/05/26 05:46:52;;;;;;;27.83;6.80;;;;;;;;;;5040743;28;20993;-80
2023/05/26 05:49:18;;;;;;;23.87;7.77;;;;;;;;;;5037273;28;20491;-80
2023/05/26 05:51:45;;;;;;;17.50;6.27;;;;;;;;;;5040015;28;20481;-80
2023/05/26 05:54:11;;;;;;;25.87;8.33;;;;;;;;;;5039190;28;20477;-79
2023/05/26 05:56:38;;;;;;;26.93;7.77;;;;;;;;;;5038708;28;20464;-79
2023/05/26 05:59:05;;;;;;;21.23;6.80;;;;;;;;;;5027481;28;20847;-79
2023/05/26 06:01:31;;;;;;;36.13;8.73;;;;;;;;;;5033626;28;20983;-79
2023/05/26 06:03:59;;;;;;;26.03;8.53;;;;;;;;;;5036596;28;20468;-79
2023/05/26 06:06:26;;;;;;;26.50;9.13;;;;;;;;;;5029154;28;20466;-79
2023/05/26 06:08:52;;;;;;;39.37;8.43;;;;;;;;;;5030030;28;20473;-79
2023/05/26 06:11:18;;;;;;;27.30;6.67;;;;;;;;;;5021581;28;20492;-79
2023/05/26 06:13:46;;;;;;;23.70;6.87;;;;;;;;;;5038005;28;20476;-78
2023/05/26 06:16:12;;;;;;;29.73;6.83;;;;;;;;;;5037182;28;20472;-79
2023/05/26 06:18:38;;;;;;;19.00;6.17;;;;;;;;;;5027848;28;20465;-79
2023/05/26 06:21:07;;;;;;;25.13;7.40;;;;;;;;;;5029956;28;20464;-79
2023/05/26 06:23:33;;;;;;;23.57;5.87;;;;;;;;;;5033433;28;20480;-78
2023/05/26 06:25:59;;;;;;;37.00;7.40;;;;;;;;;;5033375;28;20823;-79
2023/05/26 06:28:25;;;;;;;21.30;7.30;;;;;;;;;;5033394;28;20468;-79
2023/05/26 06:30:52;;;;;;;23.33;6.10;;;;;;;;;;5036399;28;20491;-79
2023/05/26 06:33:18;;;;;;;19.83;6.03;;;;;;;;;;5036156;28;20463;-80
2023/05/26 06:35:46;;;;;;;24.07;6.67;;;;;;;;;;5035129;28;20459;-80
2023/05/26 06:38:13;;;;;;;22.17;6.27;;;;;;;;;;5032518;28;20489;-79
2023/05/26 06:40:40;;;;;;;15.20;5.53;;;;;;;;;;5029933;28;20863;-79
2023/05/26 06:43:06;;;;;;;20.50;5.60;;;;;;;;;;5041133;28;20460;-79
2023/05/26 06:45:33;;;;;;;19.70;5.97;;;;;;;;;;5037450;28;20473;-79
2023/05/26 06:47:59;;;;;;;30.30;7.10;;;;;;;;;;5017405;28;20532;-79
2023/05/26 06:50:26;;;;;;;24.47;6.00;;;;;;;;;;5032072;28;20565;-79
2023/05/26 06:52:52;;;;;;;29.80;5.93;;;;;;;;;;5036086;28;20464;-79
2023/05/26 06:55:20;;;;;;;16.50;5.60;;;;;;;;;;5031786;28;20483;-79
2023/05/26 06:57:46;;;;;;;18.00;6.20;;;;;;;;;;5034260;28;20986;-79
2023/05/26 07:00:13;;;;;;;20.10;6.07;;;;;;;;;;5034465;28;20487;-80
2023/05/26 07:02:40;;;;;;;23.00;6.87;;;;;;;;;;5033537;28;20958;-79
2023/05/26 07:05:08;;;;;;;24.17;5.87;;;;;;;;;;5005118;28;20473;-79
2023/05/26 07:07:36;;;;;;;13.73;5.00;;;;;;;;;;5035171;28;20523;-79
2023/05/26 07:10:02;;;;;;;17.90;5.40;;;;;;;;;;5014464;28;20476;-79
2023/05/26 07:12:30;;;;;;;37.87;6.87;;;;;;;;;;5028378;28;20449;-79
2023/05/26 07:14:56;;;;;;;17.47;5.27;;;;;;;;;;5036934;28;20480;-79
2023/05/26 07:17:23;;;;;;;21.83;7.10;;;;;;;;;;5037163;28;20472;-79
2023/05/26 07:19:49;;;;;;;24.57;5.67;;;;;;;;;;5049101;28;20477;-79
2023/05/26 07:22:16;;;;;;;16.60;5.70;;;;;;;;;;5035151;28;20463;-78
2023/05/26 07:24:42;;;;;;;33.30;7.40;;;;;;;;;;5031444;28;20474;-79
2023/05/26 07:27:08;;;;;;;21.40;6.80;;;;;;;;;;5033582;28;20476;-79
2023/05/26 07:29:38;;;;;;;15.37;6.03;;;;;;;;;;5026546;28;20468;-79
2023/05/26 07:32:04;;;;;;;19.80;5.40;;;;;;;;;;5014889;28;20542;-81
2023/05/26 07:34:31;;;;;;;22.20;6.03;;;;;;;;;;5033932;28;20468;-80
2023/05/26 07:36:57;;;;;;;25.27;5.60;;;;;;;;;;5036388;28;20473;-80
2023/05/26 07:39:23;;;;;;;15.57;5.87;;;;;;;;;;5023050;28;20485;-81
2023/05/26 07:41:52;;;;;;;14.30;6.07;;;;;;;;;;5037271;28;20472;-81
2023/05/26 07:44:18;;;;;;;17.40;5.33;;;;;;;;;;5034398;28;20496;-81
2023/05/26 07:46:46;;;;;;;17.13;5.30;;;;;;;;;;5034933;28;20456;-81
2023/05/26 07:49:12;;;;;;;17.90;5.97;;;;;;;;;;5036908;28;20560;-80
2023/05/26 07:51:38;;;;;;;14.77;4.90;;;;;;;;;;5011551;28;20477;-81
2023/05/26 07:54:05;;;;;;;16.50;5.50;;;;;;;;;;5034612;28;20484;-80
2023/05/26 07:56:31;;;;;;;13.63;5.00;;;;;;;;;;5032896;28;20456;-80
2023/05/26 07:58:58;;;;;;;21.17;5.77;;;;;;;;;;5035538;28;20480;-81
2023/05/26 08:01:24;;;;;;;17.80;4.90;;;;;;;;;;5037540;28;20461;-81
2023/05/26 08:03:52;;;;;;;23.80;5.73;;;;;;;;;;5038362;28;20464;-80
2023/05/26 08:06:18;;;;;;;16.03;5.20;;;;;;;;;;5041937;28;20457;-81
2023/05/26 08:08:44;;;;;;;16.60;5.20;;;;;;;;;;5039743;28;20472;-81
2023/05/26 08:11:11;;;;;;;15.57;5.33;;;;;;;;;;5040355;28;20491;-81
2023/05/26 08:13:37;;;;;;;16.60;5.20;;;;;;;;;;5037067;28;20464;-81
2023/05/26 08:16:04;;;;;;;14.47;6.10;;;;;;;;;;5033523;28;20840;-82
2023/05/26 08:18:30;;;;;;;8.73;4.80;;;;;;;;;;5039102;28;20446;-82
2023/05/26 08:20:58;;;;;;;15.27;5.83;;;;;;;;;;5036580;28;20984;-82
2023/05/26 08:23:24;;;;;;;17.87;5.80;;;;;;;;;;5041343;28;20438;-81
2023/05/26 08:25:50;;;;;;;14.07;4.40;;;;;;;;;;5039435;28;20434;-81
2023/05/26 08:28:17;;;;;;;13.20;5.10;;;;;;;;;;5037861;28;20439;-81
2023/05/26 08:30:44;;;;;;;21.07;6.83;;;;;;;;;;5039214;28;20932;-81
2023/05/26 08:33:11;;;;;;;16.13;6.00;;;;;;;;;;5037064;28;20781;-82
2023/05/26 08:35:37;;;;;;;24.63;5.47;;;;;;;;;;5035163;28;20473;-82
2023/05/26 08:38:05;;;;;;;19.93;5.10;;;;;;;;;;5035595;28;20463;-80
2023/05/26 08:40:33;;;;;;;18.73;5.43;;;;;;;;;;5040366;28;20447;-80
2023/05/26 08:43:00;;;;;;;16.20;5.97;;;;;;;;;;5037652;28;20464;-79
2023/05/26 08:45:27;;;;;;;12.30;5.70;;;;;;;;;;5041503;28;20499;-78
2023/05/26 08:47:54;;;;;;;13.60;5.47;;;;;;;;;;5014835;28;20487;-79
2023/05/26 08:50:20;;;;;;;13.87;4.50;;;;;;;;;;5034252;28;20808;-80
2023/05/26 08:52:48;;;;;;;17.37;5.13;;;;;;;;;;5033006;28;20998;-80
2023/05/26 08:55:16;;;;;;;18.23;4.53;;;;;;;;;;5036129;28;20438;-80
2023/05/26 08:57:43;;;;;;;15.23;4.83;;;;;;;;;;5036414;28;20455;-80
2023/05/26 09:00:12;;;;;;;16.63;5.47;;;;;;;;;;5038540;28;20974;-80
2023/05/26 09:02:38;;;;;;;22.20;4.93;;;;;;;;;;5033820;28;20890;-81
2023/05/26 09:05:05;;;;;;;15.10;4.33;;;;;;;;;;5037758;28;20435;-81
2023/05/26 09:07:31;;;;;;;14.60;5.03;;;;;;;;;;5034764;28;20485;-80
2023/05/26 09:10:02;;;;;;;10.70;4.30;;;;;;;;;;5037905;28;20459;-79
2023/05/26 09:12:35;;;;;;;17.47;4.97;;;;;;;;;;5017365;28;20826;-81
2023/05/26 09:15:01;;;;;;;19.63;5.00;;;;;;;;;;5037959;28;20461;-79
2023/05/26 09:17:33;;;;;;;14.70;5.03;;;;;;;;;;5038831;28;20997;-82
2023/05/26 09:19:59;;;;;;;18.43;4.73;;;;;;;;;;5016921;28;20449;-79
2023/05/26 09:22:31;;;;;;;17.30;5.00;;;;;;;;;;5038848;28;20477;-80
2023/05/26 09:24:58;;;;;;;19.77;5.90;;;;;;;;;;5017522;28;20854;-82
2023/05/26 09:27:24;;;;;;;16.53;5.47;;;;;;;;;;5032238;28;20492;-80
2023/05/26 09:29:53;;;;;;;15.10;5.63;;;;;;;;;;5035046;28;20539;-82
2023/05/26 09:32:19;;;;;;;13.37;4.13;;;;;;;;;;5029444;28;20450;-80
2023/05/26 09:34:46;;;;;;;14.20;5.03;;;;;;;;;;5032138;28;20447;-78
2023/05/26 09:37:12;;;;;;;13.30;4.80;;;;;;;;;;5032906;28;20994;-79
2023/05/26 09:39:39;;;;;;;9.80;4.37;;;;;;;;;;5037264;28;20452;-80
2023/05/26 09:42:09;;;;;;;12.90;4.67;;;;;;;;;;5039749;28;20481;-80
2023/05/26 09:44:35;;;;;;;13.90;4.90;;;;;;;;;;5038299;28;20488;-80
2023/05/26 09:47:03;;;;;;;16.93;4.67;;;;;;;;;;5020547;28;20476;-79
2023/05/26 09:49:32;;;;;;;10.53;4.23;;;;;;;;;;5039135;28;20465;-80
2023/05/26 09:52:00;;;;;;;16.80;5.23;;;;;;;;;;5022395;28;20488;-79
2023/05/26 09:54:27;;;;;;;17.67;4.87;;;;;;;;;;5033673;28;20988;-80
2023/05/26 09:56:54;;;;;;;10.87;4.67;;;;;;;;;;5035576;28;20472;-79
2023/05/26 09:59:21;;;;;;;15.17;5.47;;;;;;;;;;5033392;28;20455;-80
2023/05/26 10:01:48;;;;;;;11.03;4.07;;;;;;;;;;5012206;28;20569;-80
2023/05/26 10:04:16;;;;;;;11.23;4.63;;;;;;;;;;5039114;28;20456;-79
2023/05/26 10:06:44;;;;;;;27.73;5.07;;;;;;;;;;5036195;28;20538;-80
2023/05/26 10:09:12;;;;;;;15.90;4.97;;;;;;;;;;5018442;28;20457;-80
2023/05/26 10:11:40;;;;;;;10.40;4.47;;;;;;;;;;5036694;28;20472;-80
2023/05/26 10:14:07;;;;;;;13.53;4.77;;;;;;;;;;5038766;28;20453;-79
2023/05/26 10:16:33;;;;;;;11.00;3.80;;;;;;;;;;5043129;28;20464;-80
2023/05/26 10:19:00;;;;;;;11.20;5.60;;;;;;;;;;5033687;28;20468;-80
2023/05/26 10:21:30;;;;;;;11.73;4.73;;;;;;;;;;5035911;28;20456;-81
2023/05/26 10:23:59;;;;;;;11.93;4.50;;;;;;;;;;5033664;28;20523;-81
2023/05/26 10:26:29;;;;;;;13.57;4.53;;;;;;;;;;5038271;28;20459;-81
2023/05/26 10:28:58;;;;;;;19.33;6.23;;;;;;;;;;5030045;28;20481;-79
2023/05/26 10:31:30;;;;;;;16.67;5.83;;;;;;;;;;5034277;28;20487;-80
2023/05/26 10:33:57;;;;;;;11.43;4.10;;;;;;;;;;5036967;28;20460;-81
2023/05/26 10:36:24;;;;;;;14.80;4.60;;;;;;;;;;5035291;28;20431;-80
2023/05/26 10:38:52;;;;;;;13.57;4.43;;;;;;;;;;5018477;28;20554;-80
2023/05/26 10:41:29;;;;;;;17.27;4.90;;;;;;;;;;5031946;28;20420;-80
2023/05/26 10:43:56;;;;;;;10.07;4.30;;;;;;;;;;5014266;28;20471;-80
2023/05/26 10:46:22;;;;;;;18.27;5.60;;;;;;;;;;5035444;28;20438;-80
2023/05/26 10:48:56;;;;;;;15.60;5.20;;;;;;;;;;5037939;28;20480;-81
2023/05/26 10:51:26;;;;;;;10.40;4.70;;;;;;;;;;5025547;28;20437;-80
2023/05/26 10:53:56;;;;;;;18.33;5.83;;;;;;;;;;5028147;28;20476;-81
2023/05/26 10:56:25;;;;;;;17.03;5.03;;;;;;;;;;5031877;28;20955;-80
2023/05/26 10:58:56;;;;;;;11.30;4.43;;;;;;;;;;5037467;28;20564;-81
2023/05/26 11:01:28;;;;;;;13.47;4.53;;;;;;;;;;5024275;28;20471;-79
2023/05/26 11:03:56;;;;;;;15.13;5.90;;;;;;;;;;5015984;28;20951;-79
2023/05/26 11:06:35;;;;;;;12.03;5.50;;;;;;;;;;5025645;28;20449;-79
2023/05/26 11:09:07;;;;;;;11.10;4.63;;;;;;;;;;5030220;28;20496;-79
2023/05/26 11:11:38;;;;;;;9.80;5.00;;;;;;;;;;5033491;28;21044;-79
2023/05/26 11:14:05;;;;;;;14.93;4.60;;;;;;;;;;5022748;28;20556;-78
2023/05/26 11:16:35;;;;;;;16.50;4.70;;;;;;;;;;5033158;28;20452;-79
2023/05/26 11:19:03;;;;;;;8.70;3.73;;;;;;;;;;5028178;28;20515;-79
2023/05/26 11:21:31;;;;;;;9.80;4.40;;;;;;;;;;5032516;28;20464;-78
2023/05/26 11:24:01;;;;;;;12.23;4.17;;;;;;;;;;5030781;28;20456;-78
2023/05/26 11:26:30;;;;;;;13.70;5.47;;;;;;;;;;5025657;28;20461;-79
2023/05/26 11:28:57;;;;;;;15.03;5.87;;;;;;;;;;5026862;28;20905;-78
2023/05/26 11:31:25;;;;;;;14.10;4.60;;;;;;;;;;5031182;28;20472;-78
2023/05/26 11:33:52;;;;;;;15.00;4.73;;;;;;;;;;5015661;28;20481;-78
2023/05/26 11:36:20;;;;;;;12.53;4.13;;;;;;;;;;5028320;28;20452;-78
2023/05/26 11:38:47;;;;;;;8.23;3.77;;;;;;;;;;5020898;28;20439;-78
2023/05/26 11:41:15;;;;;;;11.53;4.53;;;;;;;;;;5028026;28;20456;-78
2023/05/26 11:43:44;;;;;;;15.20;4.90;;;;;;;;;;5030761;28;20452;-79
2023/05/26 11:46:12;;;;;;;17.90;4.47;;;;;;;;;;5028183;28;20457;-78
2023/05/26 11:48:40;;;;;;;18.57;5.27;;;;;;;;;;5032747;28;20480;-79
2023/05/26 11:51:09;;;;;;;10.93;3.93;;;;;;;;;;5025379;28;20449;-79
2023/05/26 11:53:37;;;;;;;16.30;5.30;;;;;;;;;;5031849;28;20845;-79
2023/05/26 11:56:04;;;;;;;9.20;4.87;;;;;;;;;;5030231;28;20449;-79
2023/05/26 11:58:32;;;;;;;15.77;4.60;;;;;;;;;;5032594;28;20480;-78
2023/05/26 12:01:00;;;;;;;10.83;4.70;;;;;;;;;;5030012;28;20452;-78
2023/05/26 12:03:26;;;;;;;13.97;4.40;;;;;;;;;;5029963;28;20479;-78
2023/05/26 12:05:53;;;;;;;12.07;4.37;;;;;;;;;;5018860;28;20442;-78
2023/05/26 12:08:20;;;;;;;18.53;5.67;;;;;;;;;;5026112;28;20481;-78
2023/05/26 12:10:46;;;;;;;11.43;5.87;;;;;;;;;;5028176;28;20518;-78
2023/05/26 12:13:14;;;;;;;13.30;4.90;;;;;;;;;;5029443;28;20476;-82
2023/05/26 12:15:40;;;;;;;17.23;4.20;;;;;;;;;;5029928;28;20812;-78
2023/05/26 12:18:09;;;;;;;14.57;4.50;;;;;;;;;;5025762;28;20488;-78
2023/05/26 12:20:35;;;;;;;24.50;4.20;;;;;;;;;;5028256;28;20458;-78
2023/05/26 12:23:02;;;;;;;18.40;4.67;;;;;;;;;;5023945;28;20465;-79
2023/05/26 12:25:29;;;;;;;11.33;4.03;;;;;;;;;;5026658;28;20453;-78
2023/05/26 12:27:55;;;;;;;15.33;4.40;;;;;;;;;;5020966;28;21071;-78
2023/05/26 12:30:24;;;;;;;11.87;4.23;;;;;;;;;;5026074;28;20960;-78
2023/05/26 12:32:50;;;;;;;11.60;5.40;;;;;;;;;;5035236;28;20963;-80
2023/05/26 12:35:18;;;;;;;10.80;4.37;;;;;;;;;;5027520;28;20821;-80
2023/05/26 12:37:45;;;;;;;12.77;4.93;;;;;;;;;;5028814;28;20864;-80
2023/05/26 12:40:13;;;;;;;9.10;3.30;;;;;;;;;;5028802;28;20457;-80
2023/05/26 12:42:40;;;;;;;11.27;3.60;;;;;;;;;;5029644;28;20472;-80
2023/05/26 12:45:07;;;;;;;14.83;3.77;;;;;;;;;;5030052;28;20899;-80
2023/05/26 12:47:34;;;;;;;18.67;4.13;;;;;;;;;;5011265;28;20488;-80
2023/05/26 12:50:01;;;;;;;9.00;3.70;;;;;;;;;;5028471;28;20485;-80
2023/05/26 12:52:29;;;;;;;13.23;4.20;;;;;;;;;;5033104;28;20483;-80
2023/05/26 12:54:55;;;;;;;14.63;4.50;;;;;;;;;;5032724;28;20458;-79
2023/05/26 12:57:21;;;;;;;10.90;4.37;;;;;;;;;;5031610;28;20485;-79
2023/05/26 12:59:48;;;;;;;11.30;4.30;;;;;;;;;;5029681;28;20461;-80
2023/05/26 13:02:14;;;;;;;17.13;4.20;;;;;;;;;;5034171;28;20472;-79
2023/05/26 13:04:40;;;;;;;9.67;3.83;;;;;;;;;;5035120;28;20463;-79
2023/05/26 13:07:08;;;;;;;14.60;5.30;;;;;;;;;;5030201;28;20492;-80
2023/05/26 13:09:36;;;;;;;17.13;4.33;;;;;;;;;;5035668;28;20540;-79
2023/05/26 13:12:02;;;;;;;9.10;4.47;;;;;;;;;;5027441;28;20480;-80
2023/05/26 13:14:29;;;;;;;11.20;3.90;;;;;;;;;;5035160;28;20460;-79
2023/05/26 13:16:55;;;;;;;15.10;4.93;;;;;;;;;;5031966;28;20481;-80
2023/05/26 13:19:21;;;;;;;9.13;3.47;;;;;;;;;;5034495;28;20463;-80
2023/05/26 13:21:48;;;;;;;15.17;4.37;;;;;;;;;;5031232;28;20476;-80
2023/05/26 13:24:15;;;;;;;9.47;4.33;;;;;;;;;;5034876;28;20456;-80
2023/05/26 13:26:43;;;;;;;11.07;4.00;;;;;;;;;;5027496;28;20465;-80
2023/05/26 13:29:10;;;;;;;9.63;4.27;;;;;;;;;;5033761;28;20464;-80
2023/05/26 13:31:36;;;;;;;13.17;3.77;;;;;;;;;;5035611;28;20464;-80
2023/05/26 13:34:03;;;;;;;13.33;3.60;;;;;;;;;;5023053;28;20481;-79
2023/05/26 13:36:29;;;;;;;14.17;4.63;;;;;;;;;;5033792;28;21196;-79
2023/05/26 13:38:55;;;;;;;10.83;4.27;;;;;;;;;;5033497;28;20480;-79
2023/05/26 13:41:22;;;;;;;11.40;3.67;;;;;;;;;;5032367;28;20456;-80
2023/05/26 13:43:50;;;;;;;16.47;4.13;;;;;;;;;;5028128;28;20471;-79
2023/05/26 13:46:16;;;;;;;13.30;4.10;;;;;;;;;;5029236;28;20960;-79
2023/05/26 13:48:42;;;;;;;12.97;4.53;;;;;;;;;;5038077;28;20467;-79
2023/05/26 13:51:09;;;;;;;10.93;4.17;;;;;;;;;;5030405;28;20467;-80
2023/05/26 13:53:39;;;;;;;15.00;3.87;;;;;;;;;;5013039;28;20532;-80
2023/05/26 13:56:06;;;;;;;11.87;4.23;;;;;;;;;;5026817;28;20816;-79
2023/05/26 13:58:32;;;;;;;14.60;4.37;;;;;;;;;;5032721;28;20867;-80
2023/05/26 14:01:00;;;;;;;15.53;4.13;;;;;;;;;;5024475;28;20457;-79
2023/05/26 14:03:26;;;;;;;14.73;4.57;;;;;;;;;;5033544;28;20806;-79
2023/05/26 14:05:52;;;;;;;12.43;3.70;;;;;;;;;;5023719;28;20450;-79
2023/05/26 14:08:19;;;;;;;10.97;4.10;;;;;;;;;;5030513;28;20990;-80
2023/05/26 14:10:45;;;;;;;14.30;3.70;;;;;;;;;;5028382;28;20465;-78
2023/05/26 14:13:12;;;;;;;15.10;4.03;;;;;;;;;;5016978;28;20840;-79
2023/05/26 14:15:38;;;;;;;12.50;3.20;;;;;;;;;;5033500;28;20900;-79
2023/05/26 14:18:06;;;;;;;9.07;3.27;;;;;;;;;;5010988;28;20845;-80
2023/05/26 14:20:32;;;;;;;13.23;4.47;;;;;;;;;;5029972;28;20444;-80
2023/05/26 14:22:59;;;;;;;10.20;4.03;;;;;;;;;;5023835;28;20465;-79
2023/05/26 14:25:25;;;;;;;15.20;5.37;;;;;;;;;;5026641;28;20820;-79
2023/05/26 14:27:52;;;;;;;18.60;5.10;;;;;;;;;;5012064;28;20485;-80
2023/05/26 14:30:20;;;;;;;11.93;3.70;;;;;;;;;;5029949;28;20452;-79